Pagrindinis puslapis
METAR-TAF:

METAR-TAF

Oro uostai :

Kalskag, Aliaska, Jungtinės Amerikos Valstijos

platuma: 61-32-11N, ilguma: 160-20-29W, Aukštis: 17 m

Dabartinis oras

Ataskaita buvo paskelbta 7 minutes, ne 07:56 UTC
Ramus vėjas
Temperatūra 11°C
Drėgmė 100%
Slėgis 1003 hPa
Matomumas: 16.1 km
Mažai debesys ne aukštis 1200 ft
Apsiniaukę ne aukštis 1700 ft
lietus

METAR: PALG 160756Z AUTO 00000KT 10SM -RA FEW012 OVC017 11/11 A2961 RMK AO2 RAB22 SLP029 P0000 T01110111

Laikas: 00:03 (08:03 UTC)


TAF: trūkstamas

Orai ataskaitas ir orų prognozės (METAR, TAF).

turimą stotys yra geltonos ir raudonos taškus žemėlapyje.

Perkelti pele per norėdami pamatyti stoties vardą.

Tada spustelėkite, norėdami matyti oro stebėjimo ir prognozės.

Norėdami pakeisti žemėlapį: spustelėkite ant žalios mygtukų su juodo kryžiaus žemyn,; žalią mygtuką su brūkšneliu, jei norite nutolinti; arba žalių rodyklių gretimoms žemėlapius.


METAR-TAF: